Stations météo

réclame
Mon MeteoGroup
Albenga, Italie (16122): Température de l'air & dewpoint: 18.05.2019 03:00:00 - 24.05.2019 03:00:00 (CEST)Albenga, Italie (16122): Vitesse du vent: 18.05.2019 03:00:00 - 24.05.2019 03:00:00 (CEST)Albenga, Italie (16122): Direction du vent: 18.05.2019 03:00:00 - 24.05.2019 03:00:00 (CEST)Albenga, Italie (16122): visibility: 18.05.2019 03:00:00 - 24.05.2019 03:00:00 (CEST)
Date & Time tt [°C] td [°C] ff [km/h] ff [knt] dd vv [km]
24.05.2019 03:00:00 - - - - - -
24.05.2019 02:00:00 - - - - - -
24.05.2019 01:00:00 - - - - - -
24.05.2019 00:00:00 - - - - - -
23.05.2019 23:00:00 - - - - - -
23.05.2019 22:00:00 - - - - - -
23.05.2019 21:00:00 - - - - - -
23.05.2019 20:00:00 17,0 13,0 11 6 NE 10
23.05.2019 19:00:00 18,0 13,0 9 5 E 10
23.05.2019 18:00:00 19,0 13,0 15 8 ESE 10
23.05.2019 17:00:00 19,0 13,0 18 10 E 10
23.05.2019 16:00:00 20,0 14,0 13 7 E 10
23.05.2019 15:00:00 19,0 14,0 11 6 E 10
23.05.2019 14:00:00 19,0 14,0 8 4 S 10
23.05.2019 13:00:00 19,0 14,0 9 5 SW 10
23.05.2019 12:00:00 19,0 13,0 0 0 N 10
23.05.2019 11:00:00 20,0 13,0 0 0 N 10
23.05.2019 10:00:00 18,0 13,0 0 0 N 10
23.05.2019 09:00:00 17,0 14,0 0 0 N 10
23.05.2019 08:00:00 16,0 14,0 4 2 - 10
23.05.2019 07:00:00 - - - - - -
23.05.2019 06:00:00 - - - - - -
23.05.2019 05:00:00 - - - - - -
23.05.2019 04:00:00 - - - - - -
23.05.2019 03:00:00 - - - - - -
23.05.2019 02:00:00 - - - - - -
23.05.2019 01:00:00 - - - - - -
23.05.2019 00:00:00 - - - - - -
22.05.2019 23:00:00 - - - - - -
22.05.2019 22:00:00 - - - - - -
22.05.2019 21:00:00 - - - - - -
22.05.2019 20:00:00 18,0 12,0 9 5 SSW 10
22.05.2019 19:00:00 18,0 12,0 9 5 S 10
22.05.2019 18:00:00 20,0 13,0 4 2 SE 10
22.05.2019 17:00:00 19,0 14,0 13 7 E 10
22.05.2019 16:00:00 19,0 15,0 13 7 ESE 10
22.05.2019 15:00:00 18,0 15,0 15 8 E 10
22.05.2019 14:00:00 18,0 14,0 16 9 ESE 10
22.05.2019 13:00:00 19,0 14,0 16 9 ESE 10
22.05.2019 12:00:00 18,0 14,0 16 9 ESE 10
22.05.2019 11:00:00 17,0 14,0 16 9 ESE 10
22.05.2019 10:00:00 18,0 14,0 22 12 ESE 10
22.05.2019 09:00:00 16,0 13,0 11 6 WNW 10
22.05.2019 08:00:00 15,0 13,0 5 3 - 10
22.05.2019 07:00:00 - - - - - -
22.05.2019 06:00:00 - - - - - -
22.05.2019 05:00:00 - - - - - -
22.05.2019 04:00:00 - - - - - -
22.05.2019 03:00:00 - - - - - -
22.05.2019 02:00:00 - - - - - -
22.05.2019 01:00:00 - - - - - -
22.05.2019 00:00:00 - - - - - -
21.05.2019 23:00:00 - - - - - -
21.05.2019 22:00:00 - - - - - -
21.05.2019 21:00:00 - - - - - -
21.05.2019 20:00:00 16,0 14,0 15 8 ESE 10
21.05.2019 19:00:00 16,0 14,0 13 7 E 10
21.05.2019 18:00:00 17,0 14,0 15 8 E 10
21.05.2019 17:00:00 18,0 14,0 15 8 ESE 10
21.05.2019 16:00:00 19,0 14,0 15 8 ESE 9
21.05.2019 15:00:00 18,0 14,0 18 10 ESE 10
21.05.2019 14:00:00 18,0 14,0 15 8 ESE 10
21.05.2019 13:00:00 18,0 14,0 11 6 ESE 10
21.05.2019 12:00:00 17,0 14,0 5 3 - 10
21.05.2019 11:00:00 15,0 13,0 0 0 N 10
21.05.2019 10:00:00 15,0 13,0 0 0 N 10
21.05.2019 09:00:00 15,0 13,0 0 0 N 10
21.05.2019 08:00:00 14,0 13,0 4 2 - 10
21.05.2019 07:00:00 - - - - - -
21.05.2019 06:00:00 - - - - - -
21.05.2019 05:00:00 - - - - - -
21.05.2019 04:00:00 - - - - - -
21.05.2019 03:00:00 - - - - - -
21.05.2019 02:00:00 - - - - - -
21.05.2019 01:00:00 - - - - - -
21.05.2019 00:00:00 - - - - - -
20.05.2019 23:00:00 - - - - - -
20.05.2019 22:00:00 - - - - - -
20.05.2019 21:00:00 - - - - - -
20.05.2019 20:00:00 15,0 13,0 13 7 E 10
20.05.2019 19:00:00 17,0 12,0 5 3 - 10
20.05.2019 18:00:00 17,0 12,0 8 4 SSW 10
20.05.2019 17:00:00 17,0 12,0 0 0 N 10
20.05.2019 16:00:00 16,0 13,0 5 3 - 10
20.05.2019 15:00:00 17,0 12,0 9 5 S 10
20.05.2019 14:00:00 17,0 12,0 9 5 S 10
20.05.2019 13:00:00 18,0 13,0 13 7 SSE 10
20.05.2019 12:00:00 18,0 13,0 9 5 SSW 10
20.05.2019 11:00:00 17,0 12,0 8 4 ESE 10
20.05.2019 10:00:00 16,0 12,0 0 0 N 10
20.05.2019 09:00:00 14,0 12,0 0 0 N 10
20.05.2019 08:00:00 12,0 11,0 0 0 N 10
20.05.2019 07:00:00 - - - - - -
20.05.2019 06:00:00 - - - - - -
20.05.2019 05:00:00 - - - - - -
20.05.2019 04:00:00 - - - - - -
20.05.2019 03:00:00 - - - - - -
20.05.2019 02:00:00 - - - - - -
20.05.2019 01:00:00 - - - - - -
20.05.2019 00:00:00 - - - - - -
19.05.2019 23:00:00 - - - - - -
19.05.2019 22:00:00 - - - - - -
19.05.2019 21:00:00 - - - - - -
19.05.2019 20:00:00 14,0 13,0 0 0 N 10
19.05.2019 19:00:00 13,0 12,0 0 0 N 10
19.05.2019 18:00:00 13,0 12,0 0 0 N 4,0
19.05.2019 17:00:00 16,0 12,0 0 0 N 10
19.05.2019 16:00:00 16,0 12,0 0 0 N 10
19.05.2019 15:00:00 16,0 13,0 0 0 N 10
19.05.2019 14:00:00 15,0 12,0 4 2 ENE 10
19.05.2019 13:00:00 15,0 12,0 11 6 ENE 10
19.05.2019 12:00:00 16,0 12,0 0 0 N 10
19.05.2019 11:00:00 16,0 13,0 0 0 N 10
19.05.2019 10:00:00 14,0 12,0 0 0 N 10
19.05.2019 09:00:00 13,0 11,0 5 3 - 10
19.05.2019 08:00:00 12,0 12,0 5 3 - 10
19.05.2019 07:00:00 - - - - - -
19.05.2019 06:00:00 - - - - - -
19.05.2019 05:00:00 - - - - - -
19.05.2019 04:00:00 - - - - - -
19.05.2019 03:00:00 - - - - - -
19.05.2019 02:00:00 - - - - - -
19.05.2019 01:00:00 - - - - - -
19.05.2019 00:00:00 - - - - - -
18.05.2019 23:00:00 - - - - - -
18.05.2019 22:00:00 - - - - - -
18.05.2019 21:00:00 - - - - - -
18.05.2019 20:00:00 14,0 12,0 0 0 N 10
18.05.2019 19:00:00 15,0 12,0 5 3 WNW 10
18.05.2019 18:00:00 16,0 10,0 0 0 N 10
18.05.2019 17:00:00 17,0 8,0 9 5 ENE 10
18.05.2019 16:00:00 - - - - - -
18.05.2019 15:00:00 16,0 8,0 16 9 N 10
18.05.2019 14:00:00 16,0 7,0 24 13 N 10
18.05.2019 13:00:00 17,0 7,0 29 16 NNE 10
18.05.2019 12:00:00 16,0 7,0 26 14 NNE 10
18.05.2019 11:00:00 15,0 7,0 22 12 N 10
18.05.2019 10:00:00 14,0 8,0 22 12 N 10
18.05.2019 09:00:00 14,0 7,0 22 12 NNE 10
18.05.2019 08:00:00 14,0 7,0 18 10 NNE 10
18.05.2019 07:00:00 - - - - - -
18.05.2019 06:00:00 - - - - - -
18.05.2019 05:00:00 - - - - - -
18.05.2019 04:00:00 - - - - - -
18.05.2019 03:00:00 - - - - - -

tt = Température de l'air
td = dewpoint
ff = Vitesse du vent
dd = Direction du vent
vv = visibility

stations d'obs. à proximité